Time;durP1;ratioP1;P1;durP2;ratioP2;P2;SDS_P1;SDS_P2;PMS_P1;PMS_P2;Temp;Humidity;BMP_temperature;BMP_pressure;BME280_temperature;BME280_humidity;BME280_pressure;Samples;Min_cycle;Max_cycle;Signal;HPM_P1;HPM_P2
2023/08/23 00:08:07;;;;;;;7.63;2.33;;;;;;;;;;20911702;28;20048;-63
2023/08/23 00:18:08;;;;;;;7.60;2.30;;;;;;;;;;20912273;28;20490;-62
2023/08/23 00:28:09;;;;;;;11.32;2.65;;;;;;;;;;20927167;28;20071;-62
2023/08/23 00:38:10;;;;;;;8.88;2.50;;;;;;;;;;20927386;28;20182;-61
2023/08/23 00:48:12;;;;;;;6.45;2.40;;;;;;;;;;20925382;28;20068;-61
2023/08/23 00:58:13;;;;;;;7.97;2.33;;;;;;;;;;20924278;28;20057;-60
2023/08/23 01:08:14;;;;;;;9.15;2.28;;;;;;;;;;20923611;28;20045;-61
2023/08/23 01:18:16;;;;;;;5.28;2.95;;;;;;;;;;20923214;28;20049;-61
2023/08/23 01:28:17;;;;;;;5.22;2.13;;;;;;;;;;20922135;28;20175;-61
2023/08/23 01:38:20;;;;;;;7.05;2.10;;;;;;;;;;20922611;28;20045;-61
2023/08/23 01:48:21;;;;;;;9.00;2.53;;;;;;;;;;20922819;28;20137;-60
2023/08/23 01:58:24;;;;;;;6.00;2.20;;;;;;;;;;20921267;28;20123;-60
2023/08/23 02:08:25;;;;;;;4.60;2.17;;;;;;;;;;20920286;28;20102;-60
2023/08/23 02:18:26;;;;;;;7.35;2.05;;;;;;;;;;20919598;28;20529;-62
2023/08/23 02:28:27;;;;;;;4.28;2.50;;;;;;;;;;20918878;28;20068;-62
2023/08/23 02:38:28;;;;;;;7.47;2.85;;;;;;;;;;20917939;28;20075;-60
2023/08/23 02:48:29;;;;;;;5.82;2.22;;;;;;;;;;20916475;28;20049;-60
2023/08/23 02:58:31;;;;;;;7.63;2.42;;;;;;;;;;20916703;28;20441;-61
2023/08/23 03:08:32;;;;;;;4.97;2.08;;;;;;;;;;20915939;28;20548;-61
2023/08/23 03:18:33;;;;;;;6.88;2.42;;;;;;;;;;20915185;28;20371;-62
2023/08/23 03:28:34;;;;;;;5.72;2.03;;;;;;;;;;20914674;28;20053;-60
2023/08/23 03:38:35;;;;;;;8.57;2.42;;;;;;;;;;20914276;28;20048;-61
2023/08/23 03:48:36;;;;;;;8.07;2.92;;;;;;;;;;20912384;28;20057;-61
2023/08/23 03:58:37;;;;;;;7.10;2.42;;;;;;;;;;20920388;28;20041;-61
2023/08/23 04:08:38;;;;;;;4.47;2.13;;;;;;;;;;20929809;28;20051;-61
2023/08/23 04:18:40;;;;;;;6.55;2.33;;;;;;;;;;20929040;28;20048;-61
2023/08/23 04:28:41;;;;;;;4.55;2.30;;;;;;;;;;20927050;28;20059;-61
2023/08/23 04:38:42;;;;;;;6.10;2.10;;;;;;;;;;20925910;28;20037;-61
2023/08/23 04:48:43;;;;;;;8.48;2.55;;;;;;;;;;20925213;28;20088;-62
2023/08/23 04:58:44;;;;;;;4.22;2.10;;;;;;;;;;20919766;28;20518;-61
2023/08/23 05:08:45;;;;;;;4.88;2.28;;;;;;;;;;20918597;28;20067;-61
2023/08/23 05:18:46;;;;;;;4.15;2.30;;;;;;;;;;20919364;28;20544;-61
2023/08/23 05:28:47;;;;;;;7.82;2.92;;;;;;;;;;20919161;28;20494;-61
2023/08/23 05:38:50;;;;;;;7.70;2.75;;;;;;;;;;20917256;28;20056;-62
2023/08/23 05:48:51;;;;;;;7.68;2.83;;;;;;;;;;20871657;28;1321945;-62
2023/08/23 05:58:52;;;;;;;6.43;2.78;;;;;;;;;;20920975;28;20493;-60
2023/08/23 06:08:53;;;;;;;6.97;2.42;;;;;;;;;;20919277;28;20041;-61
2023/08/23 06:18:54;;;;;;;6.38;2.65;;;;;;;;;;20918822;28;20049;-60
2023/08/23 06:28:55;;;;;;;11.98;3.05;;;;;;;;;;20918957;28;20045;-62
2023/08/23 06:38:57;;;;;;;12.77;3.30;;;;;;;;;;20916820;28;20084;-62
2023/08/23 06:48:58;;;;;;;15.80;3.33;;;;;;;;;;20915972;28;20061;-61
2023/08/23 06:58:59;;;;;;;11.75;2.72;;;;;;;;;;20916283;28;20087;-61
2023/08/23 07:09:00;;;;;;;6.20;2.50;;;;;;;;;;20915474;28;20041;-61
2023/08/23 07:19:03;;;;;;;7.13;2.95;;;;;;;;;;20914590;28;20128;-61
2023/08/23 07:29:04;;;;;;;4.28;1.88;;;;;;;;;;20914028;28;20045;-60
2023/08/23 07:39:05;;;;;;;9.93;2.10;;;;;;;;;;20914243;28;20491;-60
2023/08/23 07:49:06;;;;;;;8.60;2.95;;;;;;;;;;20912903;28;20057;-61
2023/08/23 07:59:07;;;;;;;5.75;2.35;;;;;;;;;;20913067;28;20059;-60
2023/08/23 08:09:08;;;;;;;5.38;2.30;;;;;;;;;;20911452;28;20086;-61
2023/08/23 08:19:09;;;;;;;3.80;2.00;;;;;;;;;;20956875;28;20563;-64
2023/08/23 08:29:11;;;;;;;4.15;2.13;;;;;;;;;;20987880;28;20044;-61
2023/08/23 08:39:12;;;;;;;7.78;1.77;;;;;;;;;;20992825;28;20122;-62
2023/08/23 08:49:13;;;;;;;9.05;2.15;;;;;;;;;;21008239;28;20056;-61
2023/08/23 08:59:15;;;;;;;5.80;1.90;;;;;;;;;;21008538;28;20397;-63
2023/08/23 09:09:17;;;;;;;5.57;2.10;;;;;;;;;;21006250;28;20047;-61
2023/08/23 09:19:18;;;;;;;6.13;2.20;;;;;;;;;;21005630;28;20044;-61
2023/08/23 09:29:19;;;;;;;7.47;2.67;;;;;;;;;;21004550;28;20044;-61
2023/08/23 09:39:20;;;;;;;6.60;3.80;;;;;;;;;;21005395;28;20044;-61
2023/08/23 09:49:22;;;;;;;6.45;3.90;;;;;;;;;;21002884;28;20054;-61
2023/08/23 09:59:23;;;;;;;7.55;3.05;;;;;;;;;;21002305;28;20041;-62
2023/08/23 10:09:25;;;;;;;4.35;2.90;;;;;;;;;;21002491;28;20532;-61
2023/08/23 10:19:26;;;;;;;4.43;3.03;;;;;;;;;;21001356;28;20079;-62
2023/08/23 10:29:28;;;;;;;5.13;3.00;;;;;;;;;;21001350;28;20135;-61
2023/08/23 10:39:29;;;;;;;9.07;3.28;;;;;;;;;;20998708;28;20048;-61
2023/08/23 10:49:30;;;;;;;5.15;2.90;;;;;;;;;;20997900;28;20053;-62
2023/08/23 10:59:31;;;;;;;5.38;3.00;;;;;;;;;;20998528;28;20041;-62
2023/08/23 11:09:34;;;;;;;6.05;2.78;;;;;;;;;;20997619;28;20043;-62
2023/08/23 11:19:35;;;;;;;5.40;2.35;;;;;;;;;;20997174;28;20474;-61
2023/08/23 11:29:36;;;;;;;3.42;2.10;;;;;;;;;;20995243;28;20053;-61
2023/08/23 11:39:37;;;;;;;6.55;2.60;;;;;;;;;;20996272;28;20097;-62
2023/08/23 11:49:38;;;;;;;5.93;3.08;;;;;;;;;;20996307;28;20076;-61
2023/08/23 11:59:39;;;;;;;4.65;2.45;;;;;;;;;;20995664;28;20048;-61
2023/08/23 12:09:40;;;;;;;4.22;2.38;;;;;;;;;;20995087;28;20041;-63
2023/08/23 12:19:41;;;;;;;6.47;2.42;;;;;;;;;;21002291;28;20501;-63
2023/08/23 12:29:43;;;;;;;7.45;3.20;;;;;;;;;;21010224;28;20049;-63
2023/08/23 12:39:44;;;;;;;5.93;3.15;;;;;;;;;;21010034;28;20063;-63
2023/08/23 12:49:45;;;;;;;9.88;2.95;;;;;;;;;;21008642;28;20509;-63
2023/08/23 12:59:46;;;;;;;7.53;3.20;;;;;;;;;;21008181;28;20040;-63
2023/08/23 13:09:48;;;;;;;6.65;3.72;;;;;;;;;;21008475;28;20051;-64
2023/08/23 13:19:49;;;;;;;6.25;3.15;;;;;;;;;;21006396;28;20045;-64
2023/08/23 13:29:50;;;;;;;5.18;2.95;;;;;;;;;;21005301;28;20068;-64
2023/08/23 13:39:51;;;;;;;5.10;2.85;;;;;;;;;;21003944;28;20045;-63
2023/08/23 13:49:53;;;;;;;7.38;2.80;;;;;;;;;;21004300;28;20057;-64
2023/08/23 13:59:54;;;;;;;9.02;2.58;;;;;;;;;;21002610;28;20051;-63
2023/08/23 14:09:55;;;;;;;7.85;3.00;;;;;;;;;;21002018;28;20060;-64
2023/08/23 14:19:56;;;;;;;5.28;2.63;;;;;;;;;;21002301;28;20489;-63
2023/08/23 14:29:57;;;;;;;5.95;2.50;;;;;;;;;;21000442;28;20132;-64
2023/08/23 14:39:58;;;;;;;3.58;2.28;;;;;;;;;;20998544;28;20051;-64
2023/08/23 14:50:00;;;;;;;5.60;2.40;;;;;;;;;;20999486;28;20053;-63
2023/08/23 15:00:03;;;;;;;4.68;2.10;;;;;;;;;;20999011;28;20098;-64
2023/08/23 15:10:05;;;;;;;4.80;2.47;;;;;;;;;;20997048;28;20048;-64
2023/08/23 15:20:07;;;;;;;4.90;2.83;;;;;;;;;;20998038;28;20041;-64
2023/08/23 15:30:08;;;;;;;4.05;2.50;;;;;;;;;;20996160;28;20066;-64
2023/08/23 15:40:10;;;;;;;5.22;2.65;;;;;;;;;;20996590;28;20041;-64
2023/08/23 15:50:12;;;;;;;7.15;3.17;;;;;;;;;;20998651;28;20053;-65
2023/08/23 16:00:13;;;;;;;5.45;2.90;;;;;;;;;;21014304;28;20374;-64
2023/08/23 16:10:14;;;;;;;10.63;3.15;;;;;;;;;;21013460;28;20044;-65
2023/08/23 16:20:15;;;;;;;6.85;2.80;;;;;;;;;;21011688;28;20044;-64
2023/08/23 16:30:16;;;;;;;4.90;2.45;;;;;;;;;;21009655;28;20044;-64
2023/08/23 16:40:18;;;;;;;3.97;2.55;;;;;;;;;;21010353;28;20040;-64
2023/08/23 16:50:19;;;;;;;4.95;2.88;;;;;;;;;;21007665;28;20068;-63
2023/08/23 17:00:20;;;;;;;3.53;2.17;;;;;;;;;;21008173;28;20365;-64
2023/08/23 17:10:21;;;;;;;6.85;2.50;;;;;;;;;;21006144;28;20049;-63
2023/08/23 17:20:23;;;;;;;5.65;2.50;;;;;;;;;;21007098;28;20078;-63
2023/08/23 17:30:24;;;;;;;2.92;2.50;;;;;;;;;;21005120;28;20070;-63
2023/08/23 17:40:25;;;;;;;3.75;2.50;;;;;;;;;;21004508;28;20039;-62
2023/08/23 17:50:26;;;;;;;6.05;2.70;;;;;;;;;;21003495;28;20091;-63
2023/08/23 18:00:27;;;;;;;3.25;2.03;;;;;;;;;;21002463;28;20127;-64
2023/08/23 18:10:28;;;;;;;7.13;3.78;;;;;;;;;;21001950;28;20123;-65
2023/08/23 18:20:29;;;;;;;6.45;3.30;;;;;;;;;;20999795;28;20048;-63
2023/08/23 18:30:40;;;;;;;6.65;3.50;;;;;;;;;;21001852;28;20046;-63
2023/08/23 18:40:41;;;;;;;6.57;3.70;;;;;;;;;;21000419;28;20133;-63
2023/08/23 18:50:42;;;;;;;10.25;3.70;;;;;;;;;;20998423;28;20056;-62
2023/08/23 19:00:43;;;;;;;4.55;3.35;;;;;;;;;;20998848;28;20055;-63
2023/08/23 19:10:44;;;;;;;7.88;3.55;;;;;;;;;;20998389;28;20481;-64
2023/08/23 19:20:46;;;;;;;8.82;4.07;;;;;;;;;;20996600;28;20047;-64
2023/08/23 19:30:50;;;;;;;12.50;3.92;;;;;;;;;;20995826;28;20051;-64
2023/08/23 19:40:53;;;;;;;6.38;3.97;;;;;;;;;;20997334;28;20076;-63
2023/08/23 19:50:56;;;;;;;11.63;5.20;;;;;;;;;;20996275;28;20552;-64
2023/08/23 20:01:01;;;;;;;14.10;5.15;;;;;;;;;;20995975;28;20474;-63
2023/08/23 20:11:03;;;;;;;7.88;4.22;;;;;;;;;;20996274;28;20123;-64
2023/08/23 20:21:04;;;;;;;8.05;4.00;;;;;;;;;;20996114;28;20045;-63
2023/08/23 20:31:05;;;;;;;12.45;5.78;;;;;;;;;;20995492;28;20049;-63
2023/08/23 20:41:06;;;;;;;12.48;5.70;;;;;;;;;;21002888;28;20044;-62
2023/08/23 20:51:07;;;;;;;6.85;3.95;;;;;;;;;;21009115;28;20064;-62
2023/08/23 21:01:08;;;;;;;8.77;4.53;;;;;;;;;;21008646;28;20456;-63
2023/08/23 21:11:09;;;;;;;13.43;5.15;;;;;;;;;;21007962;28;20555;-63
2023/08/23 21:21:11;;;;;;;10.23;5.13;;;;;;;;;;21007316;28;20398;-63
2023/08/23 21:31:12;;;;;;;12.80;5.22;;;;;;;;;;21007001;28;20097;-63
2023/08/23 21:41:13;;;;;;;12.88;6.40;;;;;;;;;;21005976;28;20129;-63
2023/08/23 21:51:14;;;;;;;9.90;4.75;;;;;;;;;;21004905;28;20513;-64
2023/08/23 22:01:15;;;;;;;7.35;4.45;;;;;;;;;;21003081;28;20044;-64
2023/08/23 22:11:17;;;;;;;5.47;4.47;;;;;;;;;;21003655;28;20037;-63
2023/08/23 22:21:18;;;;;;;7.93;4.10;;;;;;;;;;21001499;28;20044;-63
2023/08/23 22:31:19;;;;;;;10.80;4.00;;;;;;;;;;21000867;28;20055;-63
2023/08/23 22:41:20;;;;;;;7.68;4.38;;;;;;;;;;21001552;28;20052;-62
2023/08/23 22:51:21;;;;;;;6.88;4.45;;;;;;;;;;20999468;28;20135;-63
2023/08/23 23:01:23;;;;;;;10.38;4.32;;;;;;;;;;20999326;28;20044;-63
2023/08/23 23:11:24;;;;;;;8.35;4.20;;;;;;;;;;20997649;28;20115;-63
2023/08/23 23:21:25;;;;;;;8.60;4.30;;;;;;;;;;20998497;28;20040;-64
2023/08/23 23:31:26;;;;;;;10.77;4.65;;;;;;;;;;20997960;28;20071;-63
2023/08/23 23:41:46;;;;;;;10.25;4.50;;;;;;;;;;20997459;28;20106;-63
2023/08/23 23:51:47;;;;;;;7.63;4.35;;;;;;;;;;20996306;28;20059;-63
